sensor_id;sensor_type;location;lat;lon;timestamp;P1;durP1;ratioP1;P2;durP2;ratioP2
18685;SDS011;9473;52.342;13.110;2022-08-05T00:01:10;8.55;;;3.80;;
18685;SDS011;9473;52.342;13.110;2022-08-05T00:03:38;10.95;;;4.47;;
18685;SDS011;9473;52.342;13.110;2022-08-05T00:06:05;8.00;;;4.38;;
18685;SDS011;9473;52.342;13.110;2022-08-05T00:08:32;4.88;;;3.72;;
18685;SDS011;9473;52.342;13.110;2022-08-05T00:11:00;6.97;;;4.20;;
18685;SDS011;9473;52.342;13.110;2022-08-05T00:13:27;9.63;;;4.32;;
18685;SDS011;9473;52.342;13.110;2022-08-05T00:15:56;7.80;;;4.00;;
18685;SDS011;9473;52.342;13.110;2022-08-05T00:18:23;8.25;;;4.20;;
18685;SDS011;9473;52.342;13.110;2022-08-05T00:20:50;5.35;;;3.85;;
18685;SDS011;9473;52.342;13.110;2022-08-05T00:23:17;4.70;;;3.60;;
18685;SDS011;9473;52.342;13.110;2022-08-05T00:25:44;6.78;;;4.07;;
18685;SDS011;9473;52.342;13.110;2022-08-05T00:28:11;4.78;;;3.80;;
18685;SDS011;9473;52.342;13.110;2022-08-05T00:30:37;8.05;;;4.50;;
18685;SDS011;9473;52.342;13.110;2022-08-05T00:33:06;9.48;;;3.92;;
18685;SDS011;9473;52.342;13.110;2022-08-05T00:35:33;6.75;;;3.88;;
18685;SDS011;9473;52.342;13.110;2022-08-05T00:38:00;5.40;;;3.40;;
18685;SDS011;9473;52.342;13.110;2022-08-05T00:40:27;6.53;;;4.03;;
18685;SDS011;9473;52.342;13.110;2022-08-05T00:42:54;8.02;;;3.90;;
18685;SDS011;9473;52.342;13.110;2022-08-05T00:45:21;6.53;;;3.90;;
18685;SDS011;9473;52.342;13.110;2022-08-05T00:47:48;8.68;;;3.67;;
18685;SDS011;9473;52.342;13.110;2022-08-05T00:50:16;10.63;;;4.05;;
18685;SDS011;9473;52.342;13.110;2022-08-05T00:52:43;7.03;;;4.15;;
18685;SDS011;9473;52.342;13.110;2022-08-05T00:55:10;5.90;;;3.58;;
18685;SDS011;9473;52.342;13.110;2022-08-05T00:57:37;8.32;;;4.00;;
18685;SDS011;9473;52.342;13.110;2022-08-05T01:00:05;10.05;;;4.35;;
18685;SDS011;9473;52.342;13.110;2022-08-05T01:02:32;8.43;;;3.70;;
18685;SDS011;9473;52.342;13.110;2022-08-05T01:04:59;7.80;;;3.80;;
18685;SDS011;9473;52.342;13.110;2022-08-05T01:07:27;8.55;;;4.28;;
18685;SDS011;9473;52.342;13.110;2022-08-05T01:09:54;10.05;;;4.65;;
18685;SDS011;9473;52.342;13.110;2022-08-05T01:12:22;7.45;;;4.50;;
18685;SDS011;9473;52.342;13.110;2022-08-05T01:14:51;8.23;;;4.18;;
18685;SDS011;9473;52.342;13.110;2022-08-05T01:17:23;5.68;;;4.30;;
18685;SDS011;9473;52.342;13.110;2022-08-05T01:19:53;11.25;;;4.80;;
18685;SDS011;9473;52.342;13.110;2022-08-05T01:22:36;7.00;;;4.38;;
18685;SDS011;9473;52.342;13.110;2022-08-05T01:25:28;6.38;;;4.40;;
18685;SDS011;9473;52.342;13.110;2022-08-05T01:28:12;8.82;;;4.57;;
18685;SDS011;9473;52.342;13.110;2022-08-05T01:30:41;6.10;;;4.28;;
18685;SDS011;9473;52.342;13.110;2022-08-05T01:33:09;5.88;;;4.43;;
18685;SDS011;9473;52.342;13.110;2022-08-05T01:35:38;11.18;;;5.03;;
18685;SDS011;9473;52.342;13.110;2022-08-05T01:38:06;11.63;;;4.63;;
18685;SDS011;9473;52.342;13.110;2022-08-05T01:40:34;11.45;;;4.60;;
18685;SDS011;9473;52.342;13.110;2022-08-05T01:43:01;11.95;;;4.45;;
18685;SDS011;9473;52.342;13.110;2022-08-05T01:45:30;7.10;;;4.63;;
18685;SDS011;9473;52.342;13.110;2022-08-05T01:47:58;8.25;;;4.80;;
18685;SDS011;9473;52.342;13.110;2022-08-05T01:50:28;7.45;;;4.60;;
18685;SDS011;9473;52.342;13.110;2022-08-05T01:53:00;8.13;;;4.57;;
18685;SDS011;9473;52.342;13.110;2022-08-05T01:55:28;6.18;;;4.85;;
18685;SDS011;9473;52.342;13.110;2022-08-05T01:57:57;6.63;;;4.45;;
18685;SDS011;9473;52.342;13.110;2022-08-05T02:00:24;6.93;;;4.55;;
18685;SDS011;9473;52.342;13.110;2022-08-05T02:02:54;8.85;;;4.82;;
18685;SDS011;9473;52.342;13.110;2022-08-05T02:05:22;6.00;;;4.65;;
18685;SDS011;9473;52.342;13.110;2022-08-05T02:07:50;11.35;;;4.70;;
18685;SDS011;9473;52.342;13.110;2022-08-05T02:10:17;7.57;;;4.53;;
18685;SDS011;9473;52.342;13.110;2022-08-05T02:12:46;8.32;;;4.65;;
18685;SDS011;9473;52.342;13.110;2022-08-05T02:15:16;7.13;;;4.47;;
18685;SDS011;9473;52.342;13.110;2022-08-05T02:17:48;5.90;;;4.22;;
18685;SDS011;9473;52.342;13.110;2022-08-05T02:20:19;7.80;;;4.15;;
18685;SDS011;9473;52.342;13.110;2022-08-05T02:22:49;10.30;;;4.78;;
18685;SDS011;9473;52.342;13.110;2022-08-05T02:25:21;7.30;;;4.35;;
18685;SDS011;9473;52.342;13.110;2022-08-05T02:27:50;9.13;;;4.65;;
18685;SDS011;9473;52.342;13.110;2022-08-05T02:30:17;10.43;;;4.95;;
18685;SDS011;9473;52.342;13.110;2022-08-05T02:32:46;7.50;;;4.70;;
18685;SDS011;9473;52.342;13.110;2022-08-05T02:35:14;7.30;;;4.72;;
18685;SDS011;9473;52.342;13.110;2022-08-05T02:37:43;5.05;;;4.22;;
18685;SDS011;9473;52.342;13.110;2022-08-05T02:40:11;8.60;;;4.72;;
18685;SDS011;9473;52.342;13.110;2022-08-05T02:42:39;6.63;;;4.65;;
18685;SDS011;9473;52.342;13.110;2022-08-05T02:45:07;7.85;;;4.75;;
18685;SDS011;9473;52.342;13.110;2022-08-05T02:47:35;4.55;;;3.88;;
18685;SDS011;9473;52.342;13.110;2022-08-05T02:50:03;9.95;;;4.55;;
18685;SDS011;9473;52.342;13.110;2022-08-05T02:52:32;5.72;;;4.70;;
18685;SDS011;9473;52.342;13.110;2022-08-05T02:55:00;9.02;;;5.07;;
18685;SDS011;9473;52.342;13.110;2022-08-05T02:57:27;6.15;;;4.63;;
18685;SDS011;9473;52.342;13.110;2022-08-05T02:59:56;5.88;;;4.80;;
18685;SDS011;9473;52.342;13.110;2022-08-05T03:02:25;9.77;;;4.57;;
18685;SDS011;9473;52.342;13.110;2022-08-05T03:04:54;8.70;;;5.03;;
18685;SDS011;9473;52.342;13.110;2022-08-05T03:07:23;8.27;;;4.97;;
18685;SDS011;9473;52.342;13.110;2022-08-05T03:09:50;6.88;;;4.80;;
18685;SDS011;9473;52.342;13.110;2022-08-05T03:12:31;8.15;;;4.43;;
18685;SDS011;9473;52.342;13.110;2022-08-05T03:14:58;8.63;;;4.40;;
18685;SDS011;9473;52.342;13.110;2022-08-05T03:17:25;8.40;;;4.78;;
18685;SDS011;9473;52.342;13.110;2022-08-05T03:19:52;8.95;;;4.55;;
18685;SDS011;9473;52.342;13.110;2022-08-05T03:22:19;9.65;;;4.60;;
18685;SDS011;9473;52.342;13.110;2022-08-05T03:24:46;6.55;;;4.32;;
18685;SDS011;9473;52.342;13.110;2022-08-05T03:27:14;12.07;;;4.70;;
18685;SDS011;9473;52.342;13.110;2022-08-05T03:29:42;11.02;;;5.10;;
18685;SDS011;9473;52.342;13.110;2022-08-05T03:32:09;8.73;;;4.63;;
18685;SDS011;9473;52.342;13.110;2022-08-05T03:34:36;7.70;;;4.80;;
18685;SDS011;9473;52.342;13.110;2022-08-05T03:37:04;7.15;;;4.82;;
18685;SDS011;9473;52.342;13.110;2022-08-05T03:39:31;11.77;;;4.80;;
18685;SDS011;9473;52.342;13.110;2022-08-05T03:41:58;7.18;;;4.93;;
18685;SDS011;9473;52.342;13.110;2022-08-05T03:44:25;9.07;;;4.60;;
18685;SDS011;9473;52.342;13.110;2022-08-05T03:46:54;7.85;;;4.80;;
18685;SDS011;9473;52.342;13.110;2022-08-05T03:49:20;8.68;;;4.47;;
18685;SDS011;9473;52.342;13.110;2022-08-05T03:51:49;6.57;;;4.93;;
18685;SDS011;9473;52.342;13.110;2022-08-05T03:54:20;8.75;;;4.47;;
18685;SDS011;9473;52.342;13.110;2022-08-05T03:56:49;8.13;;;5.00;;
18685;SDS011;9473;52.342;13.110;2022-08-05T03:59:16;7.32;;;4.78;;
18685;SDS011;9473;52.342;13.110;2022-08-05T04:01:45;9.10;;;4.60;;
18685;SDS011;9473;52.342;13.110;2022-08-05T04:04:14;7.45;;;5.03;;
18685;SDS011;9473;52.342;13.110;2022-08-05T04:06:41;8.32;;;4.80;;
18685;SDS011;9473;52.342;13.110;2022-08-05T04:09:09;6.78;;;4.38;;
18685;SDS011;9473;52.342;13.110;2022-08-05T04:11:36;7.60;;;4.97;;
18685;SDS011;9473;52.342;13.110;2022-08-05T04:14:03;7.75;;;4.90;;
18685;SDS011;9473;52.342;13.110;2022-08-05T04:16:31;8.32;;;4.80;;
18685;SDS011;9473;52.342;13.110;2022-08-05T04:18:59;8.77;;;5.30;;
18685;SDS011;9473;52.342;13.110;2022-08-05T04:21:27;10.23;;;4.90;;
18685;SDS011;9473;52.342;13.110;2022-08-05T04:23:54;6.90;;;4.97;;
18685;SDS011;9473;52.342;13.110;2022-08-05T04:26:22;9.95;;;4.90;;
18685;SDS011;9473;52.342;13.110;2022-08-05T04:28:49;9.23;;;5.00;;
18685;SDS011;9473;52.342;13.110;2022-08-05T04:31:16;8.13;;;4.93;;
18685;SDS011;9473;52.342;13.110;2022-08-05T04:33:43;7.68;;;4.90;;
18685;SDS011;9473;52.342;13.110;2022-08-05T04:36:10;5.93;;;4.70;;
18685;SDS011;9473;52.342;13.110;2022-08-05T04:38:40;6.45;;;4.88;;
18685;SDS011;9473;52.342;13.110;2022-08-05T04:41:07;9.98;;;5.10;;
18685;SDS011;9473;52.342;13.110;2022-08-05T04:43:34;7.20;;;4.75;;
18685;SDS011;9473;52.342;13.110;2022-08-05T04:46:01;8.60;;;5.00;;
18685;SDS011;9473;52.342;13.110;2022-08-05T04:48:28;9.32;;;4.80;;
18685;SDS011;9473;52.342;13.110;2022-08-05T04:50:55;7.95;;;4.80;;
18685;SDS011;9473;52.342;13.110;2022-08-05T04:53:22;7.18;;;4.60;;
18685;SDS011;9473;52.342;13.110;2022-08-05T04:55:51;9.90;;;4.88;;
18685;SDS011;9473;52.342;13.110;2022-08-05T04:58:17;7.30;;;4.80;;
18685;SDS011;9473;52.342;13.110;2022-08-05T05:00:44;5.75;;;4.38;;
18685;SDS011;9473;52.342;13.110;2022-08-05T05:03:11;8.75;;;5.13;;
18685;SDS011;9473;52.342;13.110;2022-08-05T05:05:38;6.78;;;4.85;;
18685;SDS011;9473;52.342;13.110;2022-08-05T05:08:06;10.88;;;4.88;;
18685;SDS011;9473;52.342;13.110;2022-08-05T05:10:36;8.73;;;4.55;;
18685;SDS011;9473;52.342;13.110;2022-08-05T05:13:07;8.43;;;4.75;;
18685;SDS011;9473;52.342;13.110;2022-08-05T05:15:34;9.38;;;4.82;;
18685;SDS011;9473;52.342;13.110;2022-08-05T05:18:01;7.57;;;4.90;;
18685;SDS011;9473;52.342;13.110;2022-08-05T05:20:28;6.32;;;5.07;;
18685;SDS011;9473;52.342;13.110;2022-08-05T05:22:55;7.72;;;4.53;;
18685;SDS011;9473;52.342;13.110;2022-08-05T05:25:22;8.77;;;4.75;;
18685;SDS011;9473;52.342;13.110;2022-08-05T05:27:49;5.97;;;4.68;;
18685;SDS011;9473;52.342;13.110;2022-08-05T05:30:18;6.68;;;4.43;;
18685;SDS011;9473;52.342;13.110;2022-08-05T05:32:45;7.45;;;4.70;;
18685;SDS011;9473;52.342;13.110;2022-08-05T05:35:12;5.78;;;4.20;;
18685;SDS011;9473;52.342;13.110;2022-08-05T05:37:47;5.03;;;4.32;;
18685;SDS011;9473;52.342;13.110;2022-08-05T05:40:15;6.65;;;4.15;;
18685;SDS011;9473;52.342;13.110;2022-08-05T05:42:42;7.25;;;4.38;;
18685;SDS011;9473;52.342;13.110;2022-08-05T05:45:09;7.38;;;4.15;;
18685;SDS011;9473;52.342;13.110;2022-08-05T05:47:37;7.40;;;4.40;;
18685;SDS011;9473;52.342;13.110;2022-08-05T05:50:05;7.93;;;4.57;;
18685;SDS011;9473;52.342;13.110;2022-08-05T05:52:32;5.53;;;4.20;;
18685;SDS011;9473;52.342;13.110;2022-08-05T05:54:59;6.43;;;4.22;;
18685;SDS011;9473;52.342;13.110;2022-08-05T05:57:26;5.10;;;3.95;;
18685;SDS011;9473;52.342;13.110;2022-08-05T05:59:53;6.90;;;3.80;;
18685;SDS011;9473;52.342;13.110;2022-08-05T06:02:20;5.75;;;3.58;;
18685;SDS011;9473;52.342;13.110;2022-08-05T06:04:48;7.20;;;3.60;;
18685;SDS011;9473;52.342;13.110;2022-08-05T06:07:15;6.45;;;3.25;;
18685;SDS011;9473;52.342;13.110;2022-08-05T06:09:42;4.50;;;3.00;;
18685;SDS011;9473;52.342;13.110;2022-08-05T06:12:09;6.25;;;3.40;;
18685;SDS011;9473;52.342;13.110;2022-08-05T06:14:36;6.55;;;3.20;;
18685;SDS011;9473;52.342;13.110;2022-08-05T06:17:03;6.43;;;3.30;;
18685;SDS011;9473;52.342;13.110;2022-08-05T06:19:30;7.70;;;3.78;;
18685;SDS011;9473;52.342;13.110;2022-08-05T06:21:58;5.65;;;3.55;;
18685;SDS011;9473;52.342;13.110;2022-08-05T06:24:25;6.00;;;3.90;;
18685;SDS011;9473;52.342;13.110;2022-08-05T06:26:52;6.10;;;3.78;;
18685;SDS011;9473;52.342;13.110;2022-08-05T06:29:19;7.70;;;3.92;;
18685;SDS011;9473;52.342;13.110;2022-08-05T06:31:46;8.32;;;3.80;;
18685;SDS011;9473;52.342;13.110;2022-08-05T06:34:13;8.43;;;3.85;;
18685;SDS011;9473;52.342;13.110;2022-08-05T06:36:40;6.35;;;3.42;;
18685;SDS011;9473;52.342;13.110;2022-08-05T06:39:08;5.18;;;3.30;;
18685;SDS011;9473;52.342;13.110;2022-08-05T06:41:35;6.45;;;3.15;;
18685;SDS011;9473;52.342;13.110;2022-08-05T06:44:02;8.13;;;3.38;;
18685;SDS011;9473;52.342;13.110;2022-08-05T06:46:29;5.00;;;3.50;;
18685;SDS011;9473;52.342;13.110;2022-08-05T06:48:56;4.20;;;3.50;;
18685;SDS011;9473;52.342;13.110;2022-08-05T06:51:23;6.95;;;3.47;;
18685;SDS011;9473;52.342;13.110;2022-08-05T06:53:50;5.53;;;3.60;;
18685;SDS011;9473;52.342;13.110;2022-08-05T06:56:18;6.60;;;3.28;;
18685;SDS011;9473;52.342;13.110;2022-08-05T06:58:45;6.60;;;3.40;;
18685;SDS011;9473;52.342;13.110;2022-08-05T07:01:12;4.85;;;3.47;;
18685;SDS011;9473;52.342;13.110;2022-08-05T07:03:39;4.88;;;3.55;;
18685;SDS011;9473;52.342;13.110;2022-08-05T07:06:06;5.15;;;3.33;;
18685;SDS011;9473;52.342;13.110;2022-08-05T07:08:33;6.85;;;3.70;;
18685;SDS011;9473;52.342;13.110;2022-08-05T07:11:00;6.97;;;3.55;;
18685;SDS011;9473;52.342;13.110;2022-08-05T07:13:29;5.93;;;3.20;;
18685;SDS011;9473;52.342;13.110;2022-08-05T07:16:22;5.72;;;3.45;;
18685;SDS011;9473;52.342;13.110;2022-08-05T07:19:12;9.57;;;4.20;;
18685;SDS011;9473;52.342;13.110;2022-08-05T07:21:39;6.10;;;3.40;;
18685;SDS011;9473;52.342;13.110;2022-08-05T07:24:06;6.68;;;3.70;;
18685;SDS011;9473;52.342;13.110;2022-08-05T07:26:33;6.90;;;3.42;;
18685;SDS011;9473;52.342;13.110;2022-08-05T07:29:01;4.75;;;3.45;;
18685;SDS011;9473;52.342;13.110;2022-08-05T07:31:28;5.32;;;3.55;;
18685;SDS011;9473;52.342;13.110;2022-08-05T07:33:55;4.80;;;3.20;;
18685;SDS011;9473;52.342;13.110;2022-08-05T07:36:22;6.18;;;3.38;;
18685;SDS011;9473;52.342;13.110;2022-08-05T07:38:49;9.10;;;3.40;;
18685;SDS011;9473;52.342;13.110;2022-08-05T07:41:17;6.05;;;3.42;;
18685;SDS011;9473;52.342;13.110;2022-08-05T07:43:44;12.95;;;3.90;;
18685;SDS011;9473;52.342;13.110;2022-08-05T07:46:12;5.00;;;3.22;;
18685;SDS011;9473;52.342;13.110;2022-08-05T07:48:39;5.63;;;3.95;;
18685;SDS011;9473;52.342;13.110;2022-08-05T07:51:06;4.75;;;3.22;;
18685;SDS011;9473;52.342;13.110;2022-08-05T07:53:33;7.55;;;3.45;;
18685;SDS011;9473;52.342;13.110;2022-08-05T07:56:01;10.98;;;3.58;;
18685;SDS011;9473;52.342;13.110;2022-08-05T07:58:28;5.18;;;3.35;;
18685;SDS011;9473;52.342;13.110;2022-08-05T08:00:55;5.95;;;3.50;;
18685;SDS011;9473;52.342;13.110;2022-08-05T08:03:23;4.38;;;3.25;;
18685;SDS011;9473;52.342;13.110;2022-08-05T08:05:50;5.32;;;3.47;;
18685;SDS011;9473;52.342;13.110;2022-08-05T08:08:17;8.80;;;3.33;;
18685;SDS011;9473;52.342;13.110;2022-08-05T08:10:44;4.75;;;3.25;;
18685;SDS011;9473;52.342;13.110;2022-08-05T08:13:11;4.70;;;3.38;;
18685;SDS011;9473;52.342;13.110;2022-08-05T08:15:38;6.72;;;3.10;;
18685;SDS011;9473;52.342;13.110;2022-08-05T08:18:05;7.30;;;3.40;;
18685;SDS011;9473;52.342;13.110;2022-08-05T08:20:33;7.68;;;3.28;;
18685;SDS011;9473;52.342;13.110;2022-08-05T08:23:00;4.43;;;3.08;;
18685;SDS011;9473;52.342;13.110;2022-08-05T08:25:27;6.40;;;3.15;;
18685;SDS011;9473;52.342;13.110;2022-08-05T08:27:55;4.28;;;2.95;;
18685;SDS011;9473;52.342;13.110;2022-08-05T08:30:23;5.53;;;2.80;;
18685;SDS011;9473;52.342;13.110;2022-08-05T08:32:50;7.95;;;3.30;;
18685;SDS011;9473;52.342;13.110;2022-08-05T08:35:17;4.82;;;3.00;;
18685;SDS011;9473;52.342;13.110;2022-08-05T08:37:46;5.80;;;3.00;;
18685;SDS011;9473;52.342;13.110;2022-08-05T08:40:13;3.83;;;2.83;;
18685;SDS011;9473;52.342;13.110;2022-08-05T08:42:40;6.47;;;3.30;;
18685;SDS011;9473;52.342;13.110;2022-08-05T08:45:09;5.65;;;2.95;;
18685;SDS011;9473;52.342;13.110;2022-08-05T08:47:37;9.20;;;3.10;;
18685;SDS011;9473;52.342;13.110;2022-08-05T08:50:05;6.35;;;3.13;;
18685;SDS011;9473;52.342;13.110;2022-08-05T08:52:32;4.55;;;3.08;;
18685;SDS011;9473;52.342;13.110;2022-08-05T08:55:03;5.70;;;3.38;;
18685;SDS011;9473;52.342;13.110;2022-08-05T08:57:30;5.95;;;3.33;;
18685;SDS011;9473;52.342;13.110;2022-08-05T08:59:59;6.40;;;3.17;;
18685;SDS011;9473;52.342;13.110;2022-08-05T09:02:26;5.53;;;2.90;;
18685;SDS011;9473;52.342;13.110;2022-08-05T09:04:53;5.22;;;3.33;;
18685;SDS011;9473;52.342;13.110;2022-08-05T09:07:20;4.35;;;3.20;;
18685;SDS011;9473;52.342;13.110;2022-08-05T09:09:47;4.43;;;3.35;;
18685;SDS011;9473;52.342;13.110;2022-08-05T09:12:15;6.85;;;3.30;;
18685;SDS011;9473;52.342;13.110;2022-08-05T09:14:42;7.63;;;3.00;;
18685;SDS011;9473;52.342;13.110;2022-08-05T09:17:10;7.65;;;3.40;;
18685;SDS011;9473;52.342;13.110;2022-08-05T09:19:37;7.13;;;3.05;;
18685;SDS011;9473;52.342;13.110;2022-08-05T09:22:04;4.07;;;3.20;;
18685;SDS011;9473;52.342;13.110;2022-08-05T09:24:32;4.60;;;3.22;;
18685;SDS011;9473;52.342;13.110;2022-08-05T09:26:59;6.72;;;2.88;;
18685;SDS011;9473;52.342;13.110;2022-08-05T09:29:37;4.95;;;2.90;;
18685;SDS011;9473;52.342;13.110;2022-08-05T09:32:06;5.03;;;3.05;;
18685;SDS011;9473;52.342;13.110;2022-08-05T09:34:46;5.80;;;3.00;;
18685;SDS011;9473;52.342;13.110;2022-08-05T09:37:16;7.10;;;3.13;;
18685;SDS011;9473;52.342;13.110;2022-08-05T09:39:44;6.70;;;3.20;;
18685;SDS011;9473;52.342;13.110;2022-08-05T09:42:11;9.65;;;3.25;;
18685;SDS011;9473;52.342;13.110;2022-08-05T09:44:41;5.57;;;3.10;;
18685;SDS011;9473;52.342;13.110;2022-08-05T09:47:10;5.68;;;3.08;;
18685;SDS011;9473;52.342;13.110;2022-08-05T09:49:40;4.82;;;3.38;;
18685;SDS011;9473;52.342;13.110;2022-08-05T09:52:18;11.10;;;3.35;;
18685;SDS011;9473;52.342;13.110;2022-08-05T09:54:55;8.10;;;3.60;;
18685;SDS011;9473;52.342;13.110;2022-08-05T09:57:29;4.57;;;3.45;;
18685;SDS011;9473;52.342;13.110;2022-08-05T09:59:58;5.53;;;3.80;;
18685;SDS011;9473;52.342;13.110;2022-08-05T10:02:32;5.00;;;3.30;;
18685;SDS011;9473;52.342;13.110;2022-08-05T10:05:06;5.10;;;3.55;;
18685;SDS011;9473;52.342;13.110;2022-08-05T10:07:47;10.55;;;3.75;;
18685;SDS011;9473;52.342;13.110;2022-08-05T10:10:14;7.47;;;3.55;;
18685;SDS011;9473;52.342;13.110;2022-08-05T10:12:42;4.53;;;3.13;;
18685;SDS011;9473;52.342;13.110;2022-08-05T10:15:18;7.93;;;3.47;;
18685;SDS011;9473;52.342;13.110;2022-08-05T10:18:00;5.43;;;3.22;;
18685;SDS011;9473;52.342;13.110;2022-08-05T10:20:28;9.02;;;3.33;;
18685;SDS011;9473;52.342;13.110;2022-08-05T10:22:55;5.93;;;3.42;;
18685;SDS011;9473;52.342;13.110;2022-08-05T10:25:23;6.95;;;3.50;;
18685;SDS011;9473;52.342;13.110;2022-08-05T10:27:50;5.85;;;3.50;;
18685;SDS011;9473;52.342;13.110;2022-08-05T10:30:19;6.28;;;3.55;;
18685;SDS011;9473;52.342;13.110;2022-08-05T10:32:46;7.78;;;3.50;;
18685;SDS011;9473;52.342;13.110;2022-08-05T10:35:14;4.22;;;3.33;;
18685;SDS011;9473;52.342;13.110;2022-08-05T10:37:41;5.70;;;3.42;;
18685;SDS011;9473;52.342;13.110;2022-08-05T10:40:10;7.78;;;3.25;;
18685;SDS011;9473;52.342;13.110;2022-08-05T10:42:40;8.13;;;3.40;;
18685;SDS011;9473;52.342;13.110;2022-08-05T10:45:08;5.35;;;3.30;;
18685;SDS011;9473;52.342;13.110;2022-08-05T10:47:38;3.67;;;3.13;;
18685;SDS011;9473;52.342;13.110;2022-08-05T10:50:09;7.38;;;3.58;;
18685;SDS011;9473;52.342;13.110;2022-08-05T10:52:38;5.28;;;3.50;;
18685;SDS011;9473;52.342;13.110;2022-08-05T10:55:06;4.55;;;3.50;;
18685;SDS011;9473;52.342;13.110;2022-08-05T10:57:35;5.50;;;3.47;;
18685;SDS011;9473;52.342;13.110;2022-08-05T11:00:05;5.78;;;3.15;;
18685;SDS011;9473;52.342;13.110;2022-08-05T11:02:33;5.97;;;3.30;;
18685;SDS011;9473;52.342;13.110;2022-08-05T11:05:02;6.15;;;3.13;;
18685;SDS011;9473;52.342;13.110;2022-08-05T11:07:29;6.85;;;3.22;;
18685;SDS011;9473;52.342;13.110;2022-08-05T11:09:56;4.15;;;2.80;;
18685;SDS011;9473;52.342;13.110;2022-08-05T11:12:42;4.20;;;2.88;;
18685;SDS011;9473;52.342;13.110;2022-08-05T11:15:15;5.07;;;2.85;;
18685;SDS011;9473;52.342;13.110;2022-08-05T11:17:43;4.32;;;2.72;;
18685;SDS011;9473;52.342;13.110;2022-08-05T11:22:53;4.82;;;2.60;;
18685;SDS011;9473;52.342;13.110;2022-08-05T11:25:30;3.78;;;2.20;;
18685;SDS011;9473;52.342;13.110;2022-08-05T11:33:24;4.57;;;2.70;;
18685;SDS011;9473;52.342;13.110;2022-08-05T11:35:51;4.43;;;2.83;;
18685;SDS011;9473;52.342;13.110;2022-08-05T11:38:20;5.35;;;3.00;;
18685;SDS011;9473;52.342;13.110;2022-08-05T11:41:11;5.25;;;2.80;;
18685;SDS011;9473;52.342;13.110;2022-08-05T11:43:40;5.43;;;2.53;;
18685;SDS011;9473;52.342;13.110;2022-08-05T11:46:08;6.10;;;2.67;;
18685;SDS011;9473;52.342;13.110;2022-08-05T11:48:36;4.38;;;2.75;;
18685;SDS011;9473;52.342;13.110;2022-08-05T11:51:07;4.25;;;2.70;;
18685;SDS011;9473;52.342;13.110;2022-08-05T11:53:34;4.55;;;2.70;;
18685;SDS011;9473;52.342;13.110;2022-08-05T11:56:01;4.32;;;2.50;;
18685;SDS011;9473;52.342;13.110;2022-08-05T11:58:29;4.68;;;2.40;;
18685;SDS011;9473;52.342;13.110;2022-08-05T12:00:59;2.38;;;2.03;;
18685;SDS011;9473;52.342;13.110;2022-08-05T12:03:27;4.03;;;2.20;;
18685;SDS011;9473;52.342;13.110;2022-08-05T12:05:56;2.60;;;2.10;;
18685;SDS011;9473;52.342;13.110;2022-08-05T12:08:23;6.25;;;2.40;;
18685;SDS011;9473;52.342;13.110;2022-08-05T12:10:50;4.88;;;2.63;;
18685;SDS011;9473;52.342;13.110;2022-08-05T12:13:19;2.80;;;2.17;;
18685;SDS011;9473;52.342;13.110;2022-08-05T12:15:47;3.70;;;2.55;;
18685;SDS011;9473;52.342;13.110;2022-08-05T12:18:16;4.35;;;2.20;;
18685;SDS011;9473;52.342;13.110;2022-08-05T12:20:43;4.20;;;2.38;;
18685;SDS011;9473;52.342;13.110;2022-08-05T12:23:10;4.00;;;2.40;;
18685;SDS011;9473;52.342;13.110;2022-08-05T12:25:50;3.65;;;2.03;;
18685;SDS011;9473;52.342;13.110;2022-08-05T12:28:30;3.25;;;2.00;;
18685;SDS011;9473;52.342;13.110;2022-08-05T12:30:58;4.70;;;2.20;;
18685;SDS011;9473;52.342;13.110;2022-08-05T12:33:25;5.20;;;2.30;;
18685;SDS011;9473;52.342;13.110;2022-08-05T12:35:52;4.53;;;2.25;;
18685;SDS011;9473;52.342;13.110;2022-08-05T12:38:20;5.97;;;2.63;;
18685;SDS011;9473;52.342;13.110;2022-08-05T12:40:47;3.85;;;2.17;;
18685;SDS011;9473;52.342;13.110;2022-08-05T12:43:14;3.65;;;2.60;;
18685;SDS011;9473;52.342;13.110;2022-08-05T12:45:49;3.42;;;2.45;;
18685;SDS011;9473;52.342;13.110;2022-08-05T12:48:17;6.60;;;2.53;;
18685;SDS011;9473;52.342;13.110;2022-08-05T12:53:27;5.72;;;2.80;;
18685;SDS011;9473;52.342;13.110;2022-08-05T12:55:54;2.70;;;2.45;;
18685;SDS011;9473;52.342;13.110;2022-08-05T12:58:22;6.20;;;2.60;;
18685;SDS011;9473;52.342;13.110;2022-08-05T13:00:49;4.40;;;2.85;;
18685;SDS011;9473;52.342;13.110;2022-08-05T13:03:17;5.53;;;2.80;;
18685;SDS011;9473;52.342;13.110;2022-08-05T13:05:45;4.15;;;2.83;;
18685;SDS011;9473;52.342;13.110;2022-08-05T13:08:15;3.25;;;2.72;;
18685;SDS011;9473;52.342;13.110;2022-08-05T13:10:42;4.78;;;3.33;;
18685;SDS011;9473;52.342;13.110;2022-08-05T13:13:10;5.07;;;2.90;;
18685;SDS011;9473;52.342;13.110;2022-08-05T13:15:38;3.72;;;2.67;;
18685;SDS011;9473;52.342;13.110;2022-08-05T13:18:05;5.75;;;3.03;;
18685;SDS011;9473;52.342;13.110;2022-08-05T13:20:34;3.92;;;3.10;;
18685;SDS011;9473;52.342;13.110;2022-08-05T13:23:01;4.85;;;2.85;;
18685;SDS011;9473;52.342;13.110;2022-08-05T13:25:28;4.03;;;2.92;;
18685;SDS011;9473;52.342;13.110;2022-08-05T13:27:55;3.90;;;3.20;;
18685;SDS011;9473;52.342;13.110;2022-08-05T13:30:22;5.45;;;3.28;;
18685;SDS011;9473;52.342;13.110;2022-08-05T13:32:50;4.25;;;2.83;;
18685;SDS011;9473;52.342;13.110;2022-08-05T13:35:17;4.53;;;3.13;;
18685;SDS011;9473;52.342;13.110;2022-08-05T13:37:46;3.45;;;2.70;;
18685;SDS011;9473;52.342;13.110;2022-08-05T13:40:13;3.58;;;2.90;;
18685;SDS011;9473;52.342;13.110;2022-08-05T13:42:40;4.40;;;2.80;;
18685;SDS011;9473;52.342;13.110;2022-08-05T13:45:08;5.03;;;2.92;;
18685;SDS011;9473;52.342;13.110;2022-08-05T13:47:35;5.05;;;2.72;;
18685;SDS011;9473;52.342;13.110;2022-08-05T13:50:04;4.15;;;2.80;;
18685;SDS011;9473;52.342;13.110;2022-08-05T13:52:31;4.22;;;2.90;;
18685;SDS011;9473;52.342;13.110;2022-08-05T13:54:59;3.78;;;2.60;;
18685;SDS011;9473;52.342;13.110;2022-08-05T13:57:26;6.25;;;2.92;;
18685;SDS011;9473;52.342;13.110;2022-08-05T13:59:53;4.75;;;2.80;;
18685;SDS011;9473;52.342;13.110;2022-08-05T14:02:20;4.63;;;3.22;;
18685;SDS011;9473;52.342;13.110;2022-08-05T14:04:47;3.47;;;2.55;;
18685;SDS011;9473;52.342;13.110;2022-08-05T14:07:32;4.85;;;3.10;;
18685;SDS011;9473;52.342;13.110;2022-08-05T14:10:02;5.07;;;3.08;;
18685;SDS011;9473;52.342;13.110;2022-08-05T14:12:29;3.67;;;2.83;;
18685;SDS011;9473;52.342;13.110;2022-08-05T14:14:56;4.25;;;2.50;;
18685;SDS011;9473;52.342;13.110;2022-08-05T14:17:22;4.85;;;2.50;;
18685;SDS011;9473;52.342;13.110;2022-08-05T14:19:50;5.03;;;2.78;;
18685;SDS011;9473;52.342;13.110;2022-08-05T14:22:18;4.22;;;2.70;;
18685;SDS011;9473;52.342;13.110;2022-08-05T14:24:45;3.67;;;2.75;;
18685;SDS011;9473;52.342;13.110;2022-08-05T14:27:13;3.80;;;2.80;;
18685;SDS011;9473;52.342;13.110;2022-08-05T14:29:40;4.07;;;2.90;;
18685;SDS011;9473;52.342;13.110;2022-08-05T14:32:07;5.03;;;2.78;;
18685;SDS011;9473;52.342;13.110;2022-08-05T14:34:34;5.03;;;3.28;;
18685;SDS011;9473;52.342;13.110;2022-08-05T14:37:01;4.68;;;2.78;;
18685;SDS011;9473;52.342;13.110;2022-08-05T14:39:28;7.20;;;3.30;;
18685;SDS011;9473;52.342;13.110;2022-08-05T14:41:56;4.70;;;2.83;;
18685;SDS011;9473;52.342;13.110;2022-08-05T14:44:24;4.20;;;2.70;;
18685;SDS011;9473;52.342;13.110;2022-08-05T14:46:51;6.00;;;3.08;;
18685;SDS011;9473;52.342;13.110;2022-08-05T14:49:18;3.80;;;2.80;;
18685;SDS011;9473;52.342;13.110;2022-08-05T14:51:45;3.63;;;2.83;;
18685;SDS011;9473;52.342;13.110;2022-08-05T14:54:12;7.00;;;3.30;;
18685;SDS011;9473;52.342;13.110;2022-08-05T14:56:39;6.57;;;3.30;;
18685;SDS011;9473;52.342;13.110;2022-08-05T14:59:06;5.20;;;3.17;;
18685;SDS011;9473;52.342;13.110;2022-08-05T15:01:34;6.15;;;2.92;;
18685;SDS011;9473;52.342;13.110;2022-08-05T15:04:01;4.72;;;3.65;;
18685;SDS011;9473;52.342;13.110;2022-08-05T15:06:30;4.72;;;3.30;;